Time;durP1;ratioP1;P1;durP2;ratioP2;P2;SDS_P1;SDS_P2;PMS_P1;PMS_P2;Temp;Humidity;BMP_temperature;BMP_pressure;BME280_temperature;BME280_humidity;BME280_pressure;Samples;Min_cycle;Max_cycle;Signal;HPM_P1;HPM_P2
2021/09/07 00:01:11;;;;;;;7.53;2.83;;;;;;;18.10;36.81;100001.72;5016730;28;20536;-72
2021/09/07 00:03:36;;;;;;;6.00;2.63;;;;;;;18.09;36.58;99998.25;5016377;28;20132;-72
2021/09/07 00:06:02;;;;;;;5.50;2.72;;;;;;;18.17;36.60;100011.50;5016769;28;20040;-72
2021/09/07 00:08:29;;;;;;;5.28;2.53;;;;;;;18.18;36.59;100005.13;5000172;28;20041;-73
2021/09/07 00:10:58;;;;;;;5.78;2.58;;;;;;;18.33;36.64;100002.28;5049507;28;20138;-72
2021/09/07 00:13:25;;;;;;;3.85;2.45;;;;;;;18.36;36.69;99993.81;5049068;28;20041;-71
2021/09/07 00:15:51;;;;;;;6.72;2.50;;;;;;;18.39;36.54;100002.34;5032868;28;20044;-71
2021/09/07 00:18:18;;;;;;;4.28;2.75;;;;;;;18.38;36.68;100003.41;5016301;28;20040;-72
2021/09/07 00:20:44;;;;;;;4.18;2.15;;;;;;;18.42;36.34;100001.97;5016206;28;20049;-72
2021/09/07 00:23:12;;;;;;;3.13;2.10;;;;;;;18.42;36.46;99995.75;5049234;28;20080;-71
2021/09/07 00:25:38;;;;;;;3.05;2.25;;;;;;;18.26;36.90;100004.13;5049101;28;20588;-72
2021/09/07 00:28:05;;;;;;;3.70;2.47;;;;;;;18.22;37.00;100001.00;5032985;28;20071;-72
2021/09/07 00:30:31;;;;;;;4.15;2.35;;;;;;;18.24;36.96;99995.41;5032563;28;20454;-72
2021/09/07 00:33:04;;;;;;;4.43;2.20;;;;;;;18.58;37.13;99992.72;5032635;28;20079;-73
2021/09/07 00:35:31;;;;;;;4.10;2.15;;;;;;;18.37;37.04;99998.19;5032614;28;20049;-73
2021/09/07 00:37:58;;;;;;;4.45;2.20;;;;;;;18.44;36.94;99999.06;5049119;28;20047;-73
2021/09/07 00:40:26;;;;;;;5.38;2.28;;;;;;;18.31;37.24;100004.38;5049124;28;20186;-71
2021/09/07 00:42:53;;;;;;;4.15;2.38;;;;;;;18.39;37.03;99994.28;5032728;28;20045;-72
2021/09/07 00:45:19;;;;;;;3.30;2.20;;;;;;;18.36;37.16;99999.19;5016018;28;20511;-72
2021/09/07 00:47:47;;;;;;;8.23;2.42;;;;;;;18.25;37.34;100007.84;5032155;28;20053;-72
2021/09/07 00:50:14;;;;;;;3.78;2.20;;;;;;;18.45;37.09;99995.38;5032499;28;20041;-73
2021/09/07 00:52:42;;;;;;;5.65;2.30;;;;;;;18.47;37.18;99992.47;5032216;28;20132;-72
2021/09/07 00:55:09;;;;;;;4.43;2.33;;;;;;;18.44;37.25;99996.38;5032726;28;20044;-72
2021/09/07 00:57:36;;;;;;;3.50;2.30;;;;;;;18.22;37.65;100000.19;5032721;28;20089;-72
2021/09/07 01:00:09;;;;;;;4.30;2.05;;;;;;;18.49;37.24;99996.63;5032340;28;20052;-71
2021/09/07 01:02:36;;;;;;;3.90;2.20;;;;;;;18.24;37.52;99998.09;5036425;28;20056;-72
2021/09/07 01:05:03;;;;;;;4.20;2.15;;;;;;;18.24;37.50;100001.63;5036082;28;20084;-72
2021/09/07 01:07:33;;;;;;;2.65;2.00;;;;;;;18.55;37.11;100003.03;5019546;28;20045;-73
2021/09/07 01:10:07;;;;;;;4.90;2.08;;;;;;;18.32;37.45;99996.09;5052864;28;20045;-72
2021/09/07 01:12:33;;;;;;;3.63;2.10;;;;;;;18.41;37.50;99997.63;5036075;28;20060;-72
2021/09/07 01:15:00;;;;;;;4.50;1.85;;;;;;;18.28;37.31;100002.06;5035991;28;20072;-72
2021/09/07 01:17:27;;;;;;;3.15;2.03;;;;;;;18.27;37.20;99993.16;5035996;28;20041;-72
2021/09/07 01:19:55;;;;;;;2.35;1.80;;;;;;;18.18;37.45;99994.38;5052554;28;20505;-72
2021/09/07 01:22:23;;;;;;;2.83;1.75;;;;;;;18.48;37.38;99992.28;5035886;28;20052;-72
2021/09/07 01:24:50;;;;;;;3.45;1.70;;;;;;;18.30;37.82;99998.16;5035977;28;20045;-72
2021/09/07 01:27:18;;;;;;;3.00;1.73;;;;;;;18.53;37.35;99991.69;5052122;28;20057;-72
2021/09/07 01:29:46;;;;;;;4.47;1.98;;;;;;;18.28;37.39;99999.38;5052300;28;20052;-72
2021/09/07 01:32:12;;;;;;;2.03;1.60;;;;;;;18.17;37.57;99994.56;5036085;28;20083;-72
2021/09/07 01:34:40;;;;;;;2.95;1.65;;;;;;;18.22;37.58;99984.06;5019744;28;20057;-72
2021/09/07 01:37:07;;;;;;;4.30;2.05;;;;;;;18.50;37.38;99995.56;5035644;28;20052;-72
2021/09/07 01:39:33;;;;;;;4.13;1.60;;;;;;;18.40;37.05;99995.94;5035664;28;20049;-71
2021/09/07 01:41:59;;;;;;;4.72;1.75;;;;;;;18.24;37.31;99998.09;5019329;28;20076;-72
2021/09/07 01:44:25;;;;;;;2.25;1.50;;;;;;;18.33;36.99;99983.47;5018966;28;20055;-73
2021/09/07 01:46:51;;;;;;;2.22;1.50;;;;;;;18.28;36.93;99983.25;5018867;28;20106;-73
2021/09/07 01:49:18;;;;;;;3.40;1.38;;;;;;;18.12;37.36;99973.66;5046638;28;20128;-73
2021/09/07 01:51:45;;;;;;;2.80;1.60;;;;;;;18.17;37.35;99973.06;5018924;28;20041;-73
2021/09/07 01:54:12;;;;;;;2.45;1.70;;;;;;;18.03;37.79;99971.31;5035664;28;20045;-72
2021/09/07 01:56:42;;;;;;;4.05;1.50;;;;;;;18.27;37.29;99971.66;5052017;28;20055;-71
2021/09/07 01:59:09;;;;;;;2.42;1.50;;;;;;;18.27;37.53;99982.41;5035356;28;20067;-71
2021/09/07 02:01:36;;;;;;;4.78;1.67;;;;;;;18.25;37.11;99980.97;5035234;28;20103;-71
2021/09/07 02:04:05;;;;;;;2.58;1.40;;;;;;;18.28;36.97;99976.00;5035347;28;20049;-71
2021/09/07 02:06:32;;;;;;;3.47;1.60;;;;;;;18.50;36.73;99963.31;5018876;28;20049;-72
2021/09/07 02:09:01;;;;;;;2.60;1.60;;;;;;;18.42;36.99;99967.00;5019328;28;20094;-71
2021/09/07 02:11:27;;;;;;;3.33;1.40;;;;;;;18.33;37.06;99975.41;5018470;28;20102;-72
2021/09/07 02:13:53;;;;;;;2.25;1.60;;;;;;;18.26;37.08;99969.16;5035067;28;20048;-72
2021/09/07 02:16:20;;;;;;;4.85;1.58;;;;;;;18.34;36.92;99961.75;5067893;28;20072;-72
2021/09/07 02:18:46;;;;;;;3.13;1.40;;;;;;;18.54;36.77;99964.56;5018261;28;20044;-72
2021/09/07 02:21:13;;;;;;;2.42;1.50;;;;;;;18.61;36.55;99954.66;5018866;28;20049;-72
2021/09/07 02:23:43;;;;;;;4.10;1.40;;;;;;;18.47;36.65;99955.63;5018991;28;20048;-71
2021/09/07 02:26:09;;;;;;;4.07;1.45;;;;;;;18.42;36.74;99955.41;5034988;28;20131;-71
2021/09/07 02:28:35;;;;;;;4.25;1.38;;;;;;;18.48;36.62;99960.81;5051279;28;20140;-71
2021/09/07 02:31:01;;;;;;;3.67;1.58;;;;;;;18.36;36.90;99958.84;5034578;28;20471;-71
2021/09/07 02:33:28;;;;;;;2.80;1.60;;;;;;;18.45;36.76;99953.16;5018379;28;20049;-70
2021/09/07 02:35:56;;;;;;;2.00;1.80;;;;;;;18.15;37.14;99961.66;5018438;28;20045;-71
2021/09/07 02:38:23;;;;;;;4.93;1.40;;;;;;;18.28;37.13;99953.66;5034462;28;20132;-71
2021/09/07 02:40:49;;;;;;;4.85;1.73;;;;;;;18.51;37.12;99962.28;5050802;28;20052;-72
2021/09/07 02:43:18;;;;;;;2.58;1.60;;;;;;;18.54;36.65;99956.50;5018695;28;20044;-72
2021/09/07 02:45:44;;;;;;;4.22;1.60;;;;;;;18.35;36.77;99959.91;5051037;28;20041;-72
2021/09/07 02:48:14;;;;;;;2.78;1.50;;;;;;;18.52;36.84;99955.03;5018586;28;20102;-73
2021/09/07 02:50:43;;;;;;;3.60;1.52;;;;;;;18.50;36.85;99949.84;5018121;28;20421;-72
2021/09/07 02:53:10;;;;;;;2.78;1.80;;;;;;;18.59;36.54;99956.72;5017836;28;20040;-72
2021/09/07 02:55:37;;;;;;;2.85;1.77;;;;;;;18.50;36.64;99959.81;5017869;28;20053;-72
2021/09/07 02:58:04;;;;;;;8.18;2.13;;;;;;;18.32;37.04;99971.06;5001590;28;20048;-72
2021/09/07 03:00:31;;;;;;;4.63;1.80;;;;;;;18.48;36.93;99953.78;5050320;28;20143;-71
2021/09/07 03:02:58;;;;;;;4.03;1.83;;;;;;;18.42;36.80;99960.78;5050554;28;20041;-71
2021/09/07 03:05:25;;;;;;;4.18;2.00;;;;;;;18.09;37.49;99957.91;5050324;28;20069;-71
2021/09/07 03:07:51;;;;;;;6.68;1.80;;;;;;;18.38;37.04;99955.00;5017470;28;20048;-73
2021/09/07 03:10:17;;;;;;;2.65;1.90;;;;;;;18.38;37.19;99957.69;5066991;28;20151;-72
2021/09/07 03:12:44;;;;;;;5.70;1.80;;;;;;;18.49;36.79;99953.59;5034049;28;20044;-73
2021/09/07 03:15:12;;;;;;;3.08;1.63;;;;;;;18.33;37.01;99949.34;5018241;28;20056;-70
2021/09/07 03:17:38;;;;;;;5.63;1.90;;;;;;;18.41;37.28;99957.28;5033594;28;20045;-72
2021/09/07 03:20:06;;;;;;;2.15;1.73;;;;;;;18.65;36.81;99955.91;5001106;28;20053;-72
2021/09/07 03:22:33;;;;;;;2.80;1.90;;;;;;;18.41;36.88;99959.13;5033534;28;20048;-72
2021/09/07 03:25:05;;;;;;;4.00;1.70;;;;;;;18.42;36.88;99960.78;5033074;28;20135;-71
2021/09/07 03:27:32;;;;;;;2.95;1.77;;;;;;;18.59;37.08;99958.59;5033599;28;20061;-75
2021/09/07 03:30:01;;;;;;;2.35;1.90;;;;;;;17.90;37.84;99963.16;5033657;28;20110;-75
2021/09/07 03:32:29;;;;;;;4.05;1.95;;;;;;;18.31;37.73;99967.53;5034028;28;20036;-65
2021/09/07 03:34:55;;;;;;;6.03;2.20;;;;;;;18.47;37.25;99970.97;5033558;28;20056;-65
2021/09/07 03:37:22;;;;;;;3.60;2.00;;;;;;;18.09;37.91;99970.50;5033537;28;20532;-66
2021/09/07 03:39:49;;;;;;;3.83;1.85;;;;;;;18.10;37.71;99977.53;5033429;28;20127;-65
2021/09/07 03:42:15;;;;;;;3.13;1.77;;;;;;;18.32;37.79;99977.28;5050159;28;20044;-65
2021/09/07 03:44:42;;;;;;;2.85;1.85;;;;;;;18.50;37.65;99974.06;5033647;28;20056;-65
2021/09/07 03:47:08;;;;;;;1.95;1.73;;;;;;;18.45;37.48;99960.41;5019480;28;20274;-65
2021/09/07 03:49:35;;;;;;;6.13;2.20;;;;;;;18.56;37.15;99965.19;5035908;28;20475;-65
2021/09/07 03:52:01;;;;;;;5.80;1.75;;;;;;;18.42;37.61;99947.31;5033267;28;20055;-67
2021/09/07 03:54:30;;;;;;;5.00;2.35;;;;;;;18.46;37.64;99964.75;5033258;28;20500;-74
2021/09/07 03:56:57;;;;;;;3.20;1.90;;;;;;;18.55;37.61;99966.22;5032963;28;20496;-67
2021/09/07 03:59:25;;;;;;;4.18;2.40;;;;;;;18.48;38.03;99965.38;5021772;28;20036;-66
2021/09/07 04:01:53;;;;;;;2.35;1.90;;;;;;;18.61;37.57;99970.78;5034607;28;20050;-65
2021/09/07 04:04:21;;;;;;;4.68;1.90;;;;;;;18.44;38.15;99964.09;5035730;28;20500;-65
2021/09/07 04:06:47;;;;;;;2.45;1.85;;;;;;;18.49;37.96;99969.72;5052650;28;20056;-65
2021/09/07 04:09:13;;;;;;;4.32;2.20;;;;;;;18.50;37.91;99963.31;5068852;28;20507;-65
2021/09/07 04:11:40;;;;;;;5.50;3.10;;;;;;;18.36;38.26;99965.06;5035634;28;20045;-65
2021/09/07 04:14:06;;;;;;;4.03;2.08;;;;;;;18.66;37.78;99959.44;5052108;28;20507;-66
2021/09/07 04:16:32;;;;;;;4.32;1.90;;;;;;;18.69;37.67;99949.09;5035348;28;20040;-65
2021/09/07 04:18:59;;;;;;;1.88;1.67;;;;;;;18.81;37.49;99960.09;5068611;28;20067;-65
2021/09/07 04:21:25;;;;;;;4.25;2.10;;;;;;;18.95;37.25;99959.94;5051719;28;20052;-65
2021/09/07 04:23:51;;;;;;;3.67;2.08;;;;;;;19.06;37.14;99953.97;5035325;28;20127;-66
2021/09/07 04:26:17;;;;;;;6.63;2.28;;;;;;;19.13;37.04;99965.56;5052109;28;20055;-65
2021/09/07 04:28:43;;;;;;;3.08;1.83;;;;;;;18.92;37.13;99972.97;5034855;28;20512;-72
2021/09/07 04:31:09;;;;;;;4.15;3.00;;;;;;;19.22;36.70;99966.19;5035321;28;20961;-65
2021/09/07 04:33:35;;;;;;;2.67;1.95;;;;;;;19.06;37.22;99955.81;5053346;28;20040;-65
2021/09/07 04:36:01;;;;;;;3.33;2.20;;;;;;;19.04;37.08;99963.25;5054531;28;20079;-66
2021/09/07 04:38:26;;;;;;;2.88;1.80;;;;;;;19.19;36.99;99970.13;5055668;28;20048;-66
2021/09/07 04:40:52;;;;;;;3.75;1.77;;;;;;;19.26;36.60;99968.28;5038857;28;20135;-65
2021/09/07 04:43:18;;;;;;;6.03;1.90;;;;;;;19.41;36.23;99966.25;5056187;28;20083;-65
2021/09/07 04:45:45;;;;;;;4.80;2.33;;;;;;;19.27;36.48;99964.56;5039387;28;20051;-66
2021/09/07 04:48:12;;;;;;;6.40;2.53;;;;;;;18.87;37.49;99964.66;5055744;28;20036;-67
2021/09/07 04:50:38;;;;;;;4.82;2.33;;;;;;;19.28;36.49;99941.97;5022343;28;20036;-71
2021/09/07 04:53:04;;;;;;;2.35;1.95;;;;;;;19.56;36.40;99972.25;5038815;28;20047;-66
2021/09/07 04:55:31;;;;;;;3.40;1.90;;;;;;;19.36;35.96;99979.50;5022200;28;20064;-67
2021/09/07 04:57:56;;;;;;;3.50;1.92;;;;;;;19.25;36.19;99977.38;5055366;28;20135;-66
2021/09/07 05:00:22;;;;;;;2.78;1.90;;;;;;;19.56;36.27;99972.25;5038741;28;20135;-67
2021/09/07 05:02:49;;;;;;;2.63;1.73;;;;;;;19.56;36.10;99972.25;5022449;28;20579;-66
2021/09/07 05:05:14;;;;;;;2.35;1.70;;;;;;;19.14;36.88;99963.69;5021775;28;20097;-66
2021/09/07 05:07:40;;;;;;;3.53;1.83;;;;;;;19.50;36.29;99962.31;5022192;28;20139;-66
2021/09/07 05:10:08;;;;;;;4.10;1.63;;;;;;;19.91;35.62;99956.69;5039016;28;20047;-66
2021/09/07 05:12:34;;;;;;;4.22;1.77;;;;;;;19.82;35.66;99961.44;5072046;28;20051;-66
2021/09/07 05:15:00;;;;;;;6.80;1.88;;;;;;;19.66;35.44;99958.38;5055454;28;20066;-66
2021/09/07 05:17:26;;;;;;;2.55;1.80;;;;;;;19.62;35.57;99960.63;5022065;28;20047;-66
2021/09/07 05:19:55;;;;;;;3.92;1.77;;;;;;;20.29;35.08;99957.66;5038736;28;20044;-66
2021/09/07 05:22:21;;;;;;;2.70;1.80;;;;;;;20.15;34.76;99963.28;5055181;28;20055;-66
2021/09/07 05:24:47;;;;;;;3.97;1.88;;;;;;;20.14;34.88;99962.47;5022255;28;20045;-67
2021/09/07 05:27:13;;;;;;;3.08;1.58;;;;;;;20.11;34.73;99957.47;5054890;28;20447;-67
2021/09/07 05:29:39;;;;;;;2.25;1.38;;;;;;;19.92;34.73;99953.78;5038655;28;20220;-67
2021/09/07 05:32:05;;;;;;;3.47;1.80;;;;;;;20.37;34.26;99968.22;5038725;28;20048;-66
2021/09/07 05:34:31;;;;;;;2.85;1.60;;;;;;;19.98;34.85;99963.72;5038217;28;20099;-67
2021/09/07 05:36:57;;;;;;;2.80;1.90;;;;;;;20.66;34.17;99962.28;5037969;28;20637;-67
2021/09/07 05:39:24;;;;;;;4.30;1.63;;;;;;;20.87;33.16;99964.66;5038016;28;20488;-67
2021/09/07 05:41:52;;;;;;;6.75;1.50;;;;;;;20.63;33.53;99951.91;5054744;28;20047;-67
2021/09/07 05:44:18;;;;;;;2.58;1.63;;;;;;;20.60;33.55;99965.84;5038521;28;20090;-67
2021/09/07 05:46:44;;;;;;;3.38;1.42;;;;;;;20.31;33.81;99955.56;5037317;28;20040;-68
2021/09/07 05:49:10;;;;;;;6.00;1.48;;;;;;;20.14;nan;99962.47;5021793;28;20040;-68
2021/09/07 05:51:36;;;;;;;1.88;1.50;;;;;;;19.99;34.50;99954.56;5021698;28;20036;-68
2021/09/07 05:54:02;;;;;;;1.77;1.38;;;;;;;20.01;33.90;99960.59;5021608;28;20044;-68
2021/09/07 05:56:28;;;;;;;2.03;1.40;;;;;;;20.10;34.13;99966.59;5054451;28;20040;-67
2021/09/07 05:58:57;;;;;;;2.85;1.40;;;;;;;20.17;34.23;99959.34;5038145;28;20044;-67
2021/09/07 06:01:23;;;;;;;4.47;1.80;;;;;;;20.07;33.99;99959.75;5054688;28;20135;-67
2021/09/07 06:03:49;;;;;;;4.60;1.50;;;;;;;20.42;33.78;99970.28;5038020;28;20052;-67
2021/09/07 06:06:15;;;;;;;3.42;1.42;;;;;;;20.56;33.24;99963.78;5021367;28;20036;-67
2021/09/07 06:08:41;;;;;;;3.58;1.40;;;;;;;20.54;33.20;99964.00;5021099;28;20093;-67
2021/09/07 06:11:09;;;;;;;3.35;1.60;;;;;;;20.91;33.04;99971.25;5070845;28;20045;-66
2021/09/07 06:13:35;;;;;;;4.15;1.30;;;;;;;21.07;32.71;99978.91;5054226;28;20067;-67
2021/09/07 06:16:01;;;;;;;3.92;1.40;;;;;;;21.15;32.58;99975.94;5021296;28;20040;-66
2021/09/07 06:18:28;;;;;;;2.25;1.20;;;;;;;21.24;31.75;99981.91;5038150;28;20040;-67
2021/09/07 06:20:55;;;;;;;2.28;1.50;;;;;;;21.32;31.96;99974.38;5054277;28;20150;-67
2021/09/07 06:23:21;;;;;;;3.85;1.40;;;;;;;22.00;30.96;99983.38;5070723;28;20059;-66
2021/09/07 06:25:47;;;;;;;4.22;1.35;;;;;;;22.21;30.60;99974.84;5050631;28;20511;-67
2021/09/07 06:28:13;;;;;;;4.47;1.50;;;;;;;22.09;30.14;99981.22;5031735;28;20045;-67
2021/09/07 06:30:39;;;;;;;5.28;2.00;;;;;;;22.22;29.86;99965.66;5043429;28;20048;-67
2021/09/07 06:33:05;;;;;;;1.48;0.88;;;;;;;22.43;29.88;99958.97;5032176;28;20048;-67
2021/09/07 06:35:31;;;;;;;3.17;1.27;;;;;;;22.44;30.06;99972.28;5008470;28;20033;-67
2021/09/07 06:37:57;;;;;;;6.65;1.40;;;;;;;22.38;29.54;99965.06;5032764;28;20053;-67
2021/09/07 06:40:23;;;;;;;3.85;1.20;;;;;;;22.52;29.49;99973.88;5059718;28;20661;-66
2021/09/07 06:42:50;;;;;;;3.78;1.33;;;;;;;22.81;29.19;99964.97;5041089;28;20069;-67
2021/09/07 06:45:16;;;;;;;2.88;1.23;;;;;;;22.62;28.90;99972.28;5025612;28;20493;-66
2021/09/07 06:47:42;;;;;;;3.88;1.25;;;;;;;23.07;28.53;99967.31;5027372;28;20069;-66
2021/09/07 06:50:08;;;;;;;4.20;1.15;;;;;;;23.39;28.34;99968.72;5010220;28;20037;-66
2021/09/07 06:52:34;;;;;;;3.50;1.20;;;;;;;23.63;27.52;99965.00;5011009;28;20492;-68
2021/09/07 06:55:00;;;;;;;6.35;2.17;;;;;;;24.32;26.22;100002.19;5030154;28;20037;-67
2021/09/07 06:57:27;;;;;;;3.72;1.10;;;;;;;24.57;26.10;99962.00;5000827;28;20143;-67
2021/09/07 06:59:54;;;;;;;2.40;1.30;;;;;;;23.03;27.61;99966.94;5034545;28;20054;-67
2021/09/07 07:02:20;;;;;;;2.80;1.30;;;;;;;23.91;27.10;99956.16;5059240;28;20106;-67
2021/09/07 07:04:46;;;;;;;2.78;1.30;;;;;;;24.33;26.79;99957.69;5056305;28;20041;-67
2021/09/07 07:07:13;;;;;;;9.27;2.45;;;;;;;24.86;25.49;99955.56;5026944;28;20389;-66
2021/09/07 07:09:39;;;;;;;1.45;1.10;;;;;;;25.37;24.64;99955.41;5031979;28;20386;-68
2021/09/07 07:12:06;;;;;;;2.80;1.27;;;;;;;24.37;26.00;99967.81;5027175;28;20496;-67
2021/09/07 07:14:32;;;;;;;3.83;1.30;;;;;;;24.93;25.07;99956.22;5008662;28;20052;-67
2021/09/07 07:16:58;;;;;;;3.35;1.30;;;;;;;25.56;24.56;99956.84;5015025;28;20530;-67
2021/09/07 07:19:23;;;;;;;4.63;1.30;;;;;;;25.31;24.98;99950.94;5031475;28;20073;-67
2021/09/07 07:21:49;;;;;;;2.92;1.02;;;;;;;25.57;24.39;99941.34;5041708;28;20087;-67
2021/09/07 07:24:19;;;;;;;5.88;1.20;;;;;;;25.23;24.62;99975.00;5042008;28;20052;-67
2021/09/07 07:26:45;;;;;;;4.13;1.30;;;;;;;24.86;24.13;99978.09;5031081;28;20049;-67
2021/09/07 07:29:12;;;;;;;4.53;1.40;;;;;;;24.57;24.51;99953.84;5049299;28;20036;-66
2021/09/07 07:31:41;;;;;;;3.53;1.25;;;;;;;24.39;25.33;99956.72;5044054;28;20041;-66
2021/09/07 07:34:07;;;;;;;3.90;1.30;;;;;;;24.30;25.39;99952.72;5023739;28;20067;-66
2021/09/07 07:36:34;;;;;;;1.52;0.98;;;;;;;23.29;25.90;99960.34;5023428;28;20488;-67
2021/09/07 07:39:00;;;;;;;2.92;1.20;;;;;;;23.36;26.13;99947.50;5016356;28;20611;-67
2021/09/07 07:41:27;;;;;;;7.65;1.17;;;;;;;23.06;27.14;99944.78;5042770;28;20047;-66
2021/09/07 07:43:52;;;;;;;5.70;1.17;;;;;;;22.74;26.68;99954.22;5039348;28;20139;-67
2021/09/07 07:46:18;;;;;;;1.67;1.08;;;;;;;22.69;27.04;99954.09;5036921;28;20512;-67
2021/09/07 07:48:44;;;;;;;1.65;1.17;;;;;;;23.19;26.31;99952.75;5048526;28;20045;-67
2021/09/07 07:51:12;;;;;;;4.50;1.20;;;;;;;22.85;26.78;99945.31;5029825;28;20039;-67
2021/09/07 07:53:38;;;;;;;1.73;1.27;;;;;;;23.12;26.96;99926.81;5044240;28;20090;-66
2021/09/07 07:56:05;;;;;;;2.58;1.10;;;;;;;23.35;26.19;99936.88;5066485;28;20048;-67
2021/09/07 07:58:31;;;;;;;4.15;1.23;;;;;;;23.64;26.25;99950.38;5023111;28;20044;-66
2021/09/07 08:00:57;;;;;;;4.40;1.65;;;;;;;23.79;25.53;99941.75;5040332;28;20048;-67
2021/09/07 08:03:23;;;;;;;3.75;1.48;;;;;;;23.62;25.82;99941.63;5030510;28;20041;-67
2021/09/07 08:05:49;;;;;;;4.72;1.33;;;;;;;23.59;26.26;99947.53;5010866;28;20417;-67
2021/09/07 08:08:16;;;;;;;2.92;1.30;;;;;;;23.54;26.31;99933.84;5042088;28;20136;-67
2021/09/07 08:10:42;;;;;;;2.97;1.50;;;;;;;22.37;27.80;99951.75;5029197;28;20415;-67
2021/09/07 08:13:08;;;;;;;2.33;1.10;;;;;;;22.73;27.40;99944.44;5042610;28;20139;-67
2021/09/07 08:15:34;;;;;;;3.50;1.23;;;;;;;21.88;28.12;99949.19;5019394;28;20041;-67
2021/09/07 08:18:01;;;;;;;5.78;1.20;;;;;;;22.94;27.03;99946.63;5039136;28;20420;-66
2021/09/07 08:20:29;;;;;;;2.78;1.27;;;;;;;23.64;26.73;99935.97;5052923;28;20037;-66
2021/09/07 08:22:55;;;;;;;4.57;1.30;;;;;;;23.21;26.26;99942.50;5006765;28;20140;-67
2021/09/07 08:25:20;;;;;;;3.33;1.50;;;;;;;22.92;26.85;99940.66;5025987;28;20479;-65
2021/09/07 08:27:46;;;;;;;3.58;1.60;;;;;;;23.65;26.76;99937.66;5025137;28;20086;-67
2021/09/07 08:30:12;;;;;;;2.38;1.40;;;;;;;24.19;25.94;99940.00;5012491;28;20065;-66
2021/09/07 08:32:45;;;;;;;4.00;1.45;;;;;;;24.49;25.55;99943.38;5042226;28;20045;-67
2021/09/07 08:35:13;;;;;;;2.60;1.27;;;;;;;24.79;25.17;99950.25;5039308;28;20037;-67
2021/09/07 08:37:39;;;;;;;3.53;1.25;;;;;;;24.49;24.97;99956.94;5024970;28;20045;-66
2021/09/07 08:40:07;;;;;;;2.40;1.30;;;;;;;23.59;26.46;99950.25;5032643;28;20052;-66
2021/09/07 08:42:34;;;;;;;1.35;1.10;;;;;;;24.38;26.04;99941.50;5039766;28;20415;-66
2021/09/07 08:45:06;;;;;;;7.82;1.27;;;;;;;24.37;25.93;99945.28;5032142;28;20528;-66
2021/09/07 08:47:32;;;;;;;2.05;1.27;;;;;;;24.30;25.66;99939.97;5058775;28;20036;-66
2021/09/07 08:50:01;;;;;;;2.80;1.60;;;;;;;22.92;27.11;99943.34;5022730;28;20041;-66
2021/09/07 08:52:26;;;;;;;3.60;1.20;;;;;;;22.72;27.94;99944.69;5025144;28;20049;-66
2021/09/07 08:54:52;;;;;;;2.13;1.05;;;;;;;23.58;27.08;99936.91;5024775;28;20117;-66
2021/09/07 08:57:18;;;;;;;2.90;1.45;;;;;;;23.66;26.67;99933.88;5024429;28;20045;-68
2021/09/07 08:59:44;;;;;;;3.33;1.30;;;;;;;23.72;26.72;99932.91;5040002;28;20040;-66
2021/09/07 09:02:12;;;;;;;4.43;1.52;;;;;;;23.10;27.96;99935.16;5016633;28;20134;-67
2021/09/07 09:04:38;;;;;;;2.65;1.45;;;;;;;23.63;27.41;99923.50;5039400;28;20066;-66
2021/09/07 09:07:05;;;;;;;2.47;1.40;;;;;;;23.45;27.49;99934.44;5014896;28;20044;-66
2021/09/07 09:09:38;;;;;;;3.03;1.27;;;;;;;24.29;27.13;99926.66;5038433;28;20123;-66
2021/09/07 09:12:06;;;;;;;1.75;1.13;;;;;;;24.15;27.01;99928.81;5031670;28;20049;-69
2021/09/07 09:14:44;;;;;;;3.20;1.10;;;;;;;23.66;27.04;99966.41;5027412;28;20078;-65
2021/09/07 09:17:19;;;;;;;3.22;1.52;;;;;;;23.48;27.87;99936.69;5057375;28;20050;-66
2021/09/07 09:19:52;;;;;;;1.67;1.15;;;;;;;23.98;27.42;99932.47;5036270;28;20072;-66
2021/09/07 09:22:19;;;;;;;2.58;1.30;;;;;;;22.09;29.34;99921.69;5056554;28;20060;-66
2021/09/07 09:24:45;;;;;;;1.70;1.10;;;;;;;21.94;30.39;99922.03;5034228;28;20044;-66
2021/09/07 09:27:11;;;;;;;1.38;1.10;;;;;;;22.32;29.69;99919.13;5038879;28;20060;-66
2021/09/07 09:29:40;;;;;;;1.63;1.05;;;;;;;22.42;30.14;99925.66;5044924;28;20052;-66
2021/09/07 09:32:13;;;;;;;3.10;1.10;;;;;;;22.46;29.99;99924.16;5056476;28;20045;-66
2021/09/07 09:34:40;;;;;;;5.18;1.55;;;;;;;22.74;29.21;99920.91;5035572;28;20570;-66
2021/09/07 09:37:14;;;;;;;4.40;1.13;;;;;;;22.92;29.16;99923.56;5035062;28;20063;-66
2021/09/07 09:39:47;;;;;;;6.43;1.50;;;;;;;22.90;29.24;99920.25;5044251;28;20048;-66
2021/09/07 09:42:16;;;;;;;2.60;1.30;;;;;;;23.11;29.12;99930.59;5071520;28;20052;-66
2021/09/07 09:44:42;;;;;;;2.75;1.20;;;;;;;22.44;29.37;99937.09;5070706;28;20102;-66
2021/09/07 09:47:09;;;;;;;5.63;1.35;;;;;;;22.82;29.29;99934.09;5054179;28;20134;-66
2021/09/07 09:49:35;;;;;;;2.20;1.30;;;;;;;22.87;29.08;99926.97;5036318;28;20587;-65
2021/09/07 09:52:01;;;;;;;2.78;1.23;;;;;;;23.05;28.52;99924.19;5009506;28;20570;-66
2021/09/07 09:54:29;;;;;;;2.08;1.17;;;;;;;23.39;28.62;99924.53;5028112;28;20037;-66
2021/09/07 09:56:57;;;;;;;4.05;1.30;;;;;;;23.49;28.71;99930.19;5059753;28;20071;-66
2021/09/07 09:59:23;;;;;;;1.67;1.13;;;;;;;22.67;28.80;99933.69;5038849;28;20041;-66
2021/09/07 10:01:49;;;;;;;2.53;1.02;;;;;;;22.34;29.60;99939.50;5029484;28;20032;-66
2021/09/07 10:04:15;;;;;;;2.00;1.10;;;;;;;22.63;29.41;99935.22;5033994;28;20045;-66
2021/09/07 10:06:43;;;;;;;3.08;1.20;;;;;;;22.28;30.34;99920.66;5053201;28;20093;-66
2021/09/07 10:09:16;;;;;;;2.28;1.20;;;;;;;22.99;29.32;99940.53;5032506;28;20045;-66
2021/09/07 10:11:42;;;;;;;3.85;1.88;;;;;;;23.01;29.39;99933.84;5053633;28;20064;-66
2021/09/07 10:14:12;;;;;;;2.53;1.30;;;;;;;22.16;29.93;99944.06;5044296;28;20049;-67
2021/09/07 10:16:44;;;;;;;4.85;1.23;;;;;;;22.94;29.31;99938.50;5053080;28;20127;-67
2021/09/07 10:19:12;;;;;;;4.25;1.20;;;;;;;22.82;29.40;99939.53;5019179;28;20083;-67
2021/09/07 10:24:17;;;;;;;1.63;1.20;;;;;;;21.93;31.21;99930.38;5041100;28;20070;-65
2021/09/07 10:26:42;;;;;;;4.05;1.50;;;;;;;22.64;30.23;99935.00;5026639;28;20043;-66
2021/09/07 10:29:18;;;;;;;2.50;1.13;;;;;;;23.36;29.21;99946.69;5025222;28;20509;-65
2021/09/07 10:31:49;;;;;;;1.90;1.20;;;;;;;22.71;30.30;99943.84;5059228;28;20032;-67
2021/09/07 10:34:16;;;;;;;4.28;1.20;;;;;;;23.17;29.63;99938.59;5059171;28;20044;-66
2021/09/07 10:36:56;;;;;;;2.95;1.40;;;;;;;23.34;29.47;99924.41;5057355;28;20479;-66
2021/09/07 10:39:35;;;;;;;1.93;1.33;;;;;;;23.37;30.02;99945.63;5034465;28;20044;-66
2021/09/07 10:42:04;;;;;;;4.95;1.65;;;;;;;22.47;31.38;99949.34;5014046;28;20044;-66
2021/09/07 10:44:31;;;;;;;4.75;1.50;;;;;;;23.21;30.26;99930.81;5030605;28;20044;-71
2021/09/07 10:46:59;;;;;;;2.33;1.40;;;;;;;23.31;29.60;99958.22;5029531;28;20049;-71
2021/09/07 10:49:32;;;;;;;5.35;1.50;;;;;;;23.53;29.88;99953.06;5029686;28;20040;-72
2021/09/07 10:52:11;;;;;;;4.85;1.58;;;;;;;23.74;29.31;99945.19;5030353;28;20052;-71
2021/09/07 10:54:44;;;;;;;4.00;1.40;;;;;;;23.77;29.86;99939.28;5014154;28;20052;-71
2021/09/07 10:57:37;;;;;;;2.42;1.48;;;;;;;23.88;29.84;99949.31;5047769;28;20485;-71
2021/09/07 11:00:08;;;;;;;3.33;1.42;;;;;;;23.15;30.54;99940.72;5034160;28;20503;-71
2021/09/07 11:02:42;;;;;;;1.75;1.00;;;;;;;23.57;30.04;99938.78;5069988;28;20048;-71
2021/09/07 11:05:09;;;;;;;3.08;1.40;;;;;;;23.04;30.17;99955.06;5053578;28;20080;-71
2021/09/07 11:07:37;;;;;;;1.63;1.20;;;;;;;23.24;30.25;99950.19;5053160;28;20530;-71
2021/09/07 11:10:04;;;;;;;3.13;1.33;;;;;;;24.04;29.21;99939.66;5036705;28;20044;-71
2021/09/07 11:12:33;;;;;;;1.77;1.33;;;;;;;23.04;30.25;99936.09;5070977;28;20519;-71
2021/09/07 11:15:08;;;;;;;5.03;1.02;;;;;;;23.21;30.62;99945.22;5020037;28;20043;-71
2021/09/07 11:17:34;;;;;;;2.70;1.20;;;;;;;23.61;29.96;99967.13;5069662;28;20474;-71
2021/09/07 11:20:08;;;;;;;4.03;1.20;;;;;;;22.75;31.62;99949.63;5036627;28;20093;-71
2021/09/07 11:22:34;;;;;;;5.82;1.40;;;;;;;23.20;30.75;99948.16;5053011;28;20048;-71
2021/09/07 11:25:08;;;;;;;1.77;1.17;;;;;;;23.78;30.33;99945.53;5052802;28;20048;-71
2021/09/07 11:27:55;;;;;;;3.42;1.42;;;;;;;24.35;29.18;99936.56;5052760;28;20055;-71
2021/09/07 11:30:32;;;;;;;1.52;1.30;;;;;;;23.87;29.94;99944.97;5019604;28;20051;-71
2021/09/07 11:33:03;;;;;;;1.90;1.23;;;;;;;24.09;29.94;99937.91;5017734;28;20044;-72
2021/09/07 11:35:32;;;;;;;2.05;1.08;;;;;;;24.21;29.40;99929.72;5017440;28;20539;-72
2021/09/07 11:38:06;;;;;;;3.25;1.42;;;;;;;24.09;30.11;99926.22;5017490;28;20041;-71